sensor_id;sensor_type;location;lat;lon;timestamp;P1;durP1;ratioP1;P2;durP2;ratioP2
48329;SDS011;34138;51.262;6.818;2024-03-17T16:55:44;6.25;;;2.03;;
48329;SDS011;34138;51.262;6.818;2024-03-17T16:58:09;5.30;;;2.17;;
48329;SDS011;34138;51.262;6.818;2024-03-17T17:00:36;5.40;;;1.90;;
48329;SDS011;34138;51.262;6.818;2024-03-17T17:03:01;4.30;;;1.83;;
48329;SDS011;34138;51.262;6.818;2024-03-17T17:05:28;5.95;;;2.10;;
48329;SDS011;34138;51.262;6.818;2024-03-17T17:07:55;7.13;;;2.25;;
48329;SDS011;34138;51.262;6.818;2024-03-17T17:10:20;5.50;;;2.05;;
48329;SDS011;34138;51.262;6.818;2024-03-17T17:12:46;8.05;;;2.33;;
48329;SDS011;34138;51.262;6.818;2024-03-17T17:15:15;6.22;;;2.10;;
48329;SDS011;34138;51.262;6.818;2024-03-17T17:17:44;6.53;;;1.88;;
48329;SDS011;34138;51.262;6.818;2024-03-17T17:20:10;6.38;;;1.80;;
48329;SDS011;34138;51.262;6.818;2024-03-17T17:22:38;5.60;;;1.80;;
48329;SDS011;34138;51.262;6.818;2024-03-17T17:25:04;7.13;;;2.45;;
48329;SDS011;34138;51.262;6.818;2024-03-17T17:27:32;4.93;;;2.10;;
48329;SDS011;34138;51.262;6.818;2024-03-17T17:29:57;5.97;;;1.92;;
48329;SDS011;34138;51.262;6.818;2024-03-17T17:32:22;6.40;;;2.30;;
48329;SDS011;34138;51.262;6.818;2024-03-17T17:34:48;5.28;;;1.73;;
48329;SDS011;34138;51.262;6.818;2024-03-17T17:37:13;8.32;;;1.98;;
48329;SDS011;34138;51.262;6.818;2024-03-17T17:39:38;6.07;;;2.45;;
48329;SDS011;34138;51.262;6.818;2024-03-17T17:42:04;4.53;;;1.77;;
48329;SDS011;34138;51.262;6.818;2024-03-17T17:44:31;6.22;;;1.75;;
48329;SDS011;34138;51.262;6.818;2024-03-17T17:46:57;10.60;;;2.40;;
48329;SDS011;34138;51.262;6.818;2024-03-17T17:49:23;6.00;;;1.70;;
48329;SDS011;34138;51.262;6.818;2024-03-17T17:51:48;5.10;;;1.80;;
48329;SDS011;34138;51.262;6.818;2024-03-17T17:54:14;6.60;;;2.00;;
48329;SDS011;34138;51.262;6.818;2024-03-17T17:56:39;7.97;;;2.25;;
48329;SDS011;34138;51.262;6.818;2024-03-17T17:59:05;5.85;;;2.10;;
48329;SDS011;34138;51.262;6.818;2024-03-17T18:01:30;6.88;;;2.15;;
48329;SDS011;34138;51.262;6.818;2024-03-17T18:03:56;6.10;;;2.22;;
48329;SDS011;34138;51.262;6.818;2024-03-17T18:06:23;4.63;;;1.63;;
48329;SDS011;34138;51.262;6.818;2024-03-17T18:08:48;6.20;;;2.00;;
48329;SDS011;34138;51.262;6.818;2024-03-17T18:11:20;7.22;;;2.10;;
48329;SDS011;34138;51.262;6.818;2024-03-17T18:13:46;8.27;;;2.33;;
48329;SDS011;34138;51.262;6.818;2024-03-17T18:16:11;4.63;;;1.95;;
48329;SDS011;34138;51.262;6.818;2024-03-17T18:18:37;6.03;;;2.03;;
48329;SDS011;34138;51.262;6.818;2024-03-17T18:21:04;5.70;;;2.30;;
48329;SDS011;34138;51.262;6.818;2024-03-17T18:23:32;6.45;;;2.50;;
48329;SDS011;34138;51.262;6.818;2024-03-17T18:25:57;7.35;;;2.25;;
48329;SDS011;34138;51.262;6.818;2024-03-17T18:28:22;5.72;;;2.35;;
48329;SDS011;34138;51.262;6.818;2024-03-17T18:30:48;6.07;;;2.53;;
48329;SDS011;34138;51.262;6.818;2024-03-17T18:33:13;7.40;;;2.78;;
48329;SDS011;34138;51.262;6.818;2024-03-17T18:35:47;9.70;;;2.22;;
48329;SDS011;34138;51.262;6.818;2024-03-17T18:38:15;5.97;;;2.40;;
48329;SDS011;34138;51.262;6.818;2024-03-17T18:40:41;8.00;;;2.63;;
48329;SDS011;34138;51.262;6.818;2024-03-17T18:43:07;4.85;;;2.33;;
48329;SDS011;34138;51.262;6.818;2024-03-17T18:45:32;5.68;;;2.60;;
48329;SDS011;34138;51.262;6.818;2024-03-17T18:47:58;7.68;;;2.80;;
48329;SDS011;34138;51.262;6.818;2024-03-17T18:50:23;7.60;;;2.55;;
48329;SDS011;34138;51.262;6.818;2024-03-17T18:52:48;7.43;;;2.45;;
48329;SDS011;34138;51.262;6.818;2024-03-17T18:55:13;7.22;;;2.83;;
48329;SDS011;34138;51.262;6.818;2024-03-17T18:57:39;7.68;;;3.45;;
48329;SDS011;34138;51.262;6.818;2024-03-17T19:00:05;7.97;;;2.70;;
48329;SDS011;34138;51.262;6.818;2024-03-17T19:02:33;6.00;;;2.72;;
48329;SDS011;34138;51.262;6.818;2024-03-17T19:04:58;6.18;;;2.63;;
48329;SDS011;34138;51.262;6.818;2024-03-17T19:07:24;14.10;;;9.60;;
48329;SDS011;34138;51.262;6.818;2024-03-17T19:09:53;9.32;;;4.80;;
48329;SDS011;34138;51.262;6.818;2024-03-17T19:12:18;7.18;;;3.60;;
48329;SDS011;34138;51.262;6.818;2024-03-17T19:14:44;8.70;;;3.80;;
48329;SDS011;34138;51.262;6.818;2024-03-17T19:17:09;5.90;;;2.95;;
48329;SDS011;34138;51.262;6.818;2024-03-17T19:19:34;7.38;;;2.60;;
48329;SDS011;34138;51.262;6.818;2024-03-17T19:21:59;7.57;;;2.85;;
48329;SDS011;34138;51.262;6.818;2024-03-17T19:24:30;8.27;;;2.42;;
48329;SDS011;34138;51.262;6.818;2024-03-17T19:26:55;11.05;;;3.22;;
48329;SDS011;34138;51.262;6.818;2024-03-17T19:29:21;7.82;;;2.80;;
48329;SDS011;34138;51.262;6.818;2024-03-17T19:31:46;7.20;;;2.78;;
48329;SDS011;34138;51.262;6.818;2024-03-17T19:34:12;6.22;;;2.70;;
48329;SDS011;34138;51.262;6.818;2024-03-17T19:36:37;5.70;;;2.30;;
48329;SDS011;34138;51.262;6.818;2024-03-17T19:39:04;8.20;;;2.72;;
48329;SDS011;34138;51.262;6.818;2024-03-17T19:41:31;7.40;;;2.97;;
48329;SDS011;34138;51.262;6.818;2024-03-17T19:43:56;5.90;;;2.30;;
48329;SDS011;34138;51.262;6.818;2024-03-17T19:46:21;7.60;;;2.65;;
48329;SDS011;34138;51.262;6.818;2024-03-17T19:48:52;5.97;;;2.95;;
48329;SDS011;34138;51.262;6.818;2024-03-17T19:51:19;6.30;;;2.58;;
48329;SDS011;34138;51.262;6.818;2024-03-17T19:53:46;7.93;;;2.97;;
48329;SDS011;34138;51.262;6.818;2024-03-17T19:56:12;5.88;;;2.40;;
48329;SDS011;34138;51.262;6.818;2024-03-17T19:58:44;6.07;;;2.50;;
48329;SDS011;34138;51.262;6.818;2024-03-17T20:01:09;6.82;;;2.70;;
48329;SDS011;34138;51.262;6.818;2024-03-17T20:03:35;6.28;;;2.60;;
48329;SDS011;34138;51.262;6.818;2024-03-17T20:06:01;5.25;;;2.50;;
48329;SDS011;34138;51.262;6.818;2024-03-17T20:08:27;7.28;;;2.45;;
48329;SDS011;34138;51.262;6.818;2024-03-17T20:10:53;5.35;;;2.20;;
48329;SDS011;34138;51.262;6.818;2024-03-17T20:13:18;7.55;;;3.00;;
48329;SDS011;34138;51.262;6.818;2024-03-17T20:15:43;5.75;;;2.42;;
48329;SDS011;34138;51.262;6.818;2024-03-17T20:18:11;7.40;;;2.28;;
48329;SDS011;34138;51.262;6.818;2024-03-17T20:20:37;7.38;;;2.55;;
48329;SDS011;34138;51.262;6.818;2024-03-17T20:23:02;6.38;;;2.40;;
48329;SDS011;34138;51.262;6.818;2024-03-17T20:25:27;7.40;;;2.80;;
48329;SDS011;34138;51.262;6.818;2024-03-17T20:27:53;7.45;;;2.78;;
48329;SDS011;34138;51.262;6.818;2024-03-17T20:30:19;11.05;;;2.50;;
48329;SDS011;34138;51.262;6.818;2024-03-17T20:32:49;7.22;;;2.75;;
48329;SDS011;34138;51.262;6.818;2024-03-17T20:35:16;7.13;;;3.10;;
48329;SDS011;34138;51.262;6.818;2024-03-17T20:37:42;6.38;;;3.08;;
48329;SDS011;34138;51.262;6.818;2024-03-17T20:40:07;7.47;;;2.70;;
48329;SDS011;34138;51.262;6.818;2024-03-17T20:42:35;11.80;;;3.47;;
48329;SDS011;34138;51.262;6.818;2024-03-17T20:45:01;6.15;;;3.15;;
48329;SDS011;34138;51.262;6.818;2024-03-17T20:47:26;7.45;;;3.15;;
48329;SDS011;34138;51.262;6.818;2024-03-17T20:49:51;9.35;;;3.13;;
48329;SDS011;34138;51.262;6.818;2024-03-17T20:52:17;7.55;;;3.08;;
48329;SDS011;34138;51.262;6.818;2024-03-17T20:54:43;7.47;;;2.90;;
48329;SDS011;34138;51.262;6.818;2024-03-17T20:57:08;7.53;;;3.00;;
48329;SDS011;34138;51.262;6.818;2024-03-17T20:59:34;11.15;;;4.43;;
48329;SDS011;34138;51.262;6.818;2024-03-17T21:02:00;7.15;;;3.30;;
48329;SDS011;34138;51.262;6.818;2024-03-17T21:04:25;9.38;;;3.30;;
48329;SDS011;34138;51.262;6.818;2024-03-17T21:06:52;9.65;;;3.58;;
48329;SDS011;34138;51.262;6.818;2024-03-17T21:09:19;7.60;;;3.58;;
48329;SDS011;34138;51.262;6.818;2024-03-17T21:11:44;6.90;;;3.20;;
48329;SDS011;34138;51.262;6.818;2024-03-17T21:14:09;6.68;;;3.50;;
48329;SDS011;34138;51.262;6.818;2024-03-17T21:16:35;7.95;;;3.75;;
48329;SDS011;34138;51.262;6.818;2024-03-17T21:19:00;7.45;;;3.10;;
48329;SDS011;34138;51.262;6.818;2024-03-17T21:21:25;11.93;;;3.78;;
48329;SDS011;34138;51.262;6.818;2024-03-17T21:23:51;6.53;;;3.45;;
48329;SDS011;34138;51.262;6.818;2024-03-17T21:26:16;10.32;;;4.13;;
48329;SDS011;34138;51.262;6.818;2024-03-17T21:28:42;7.95;;;3.72;;
48329;SDS011;34138;51.262;6.818;2024-03-17T21:31:08;7.75;;;3.90;;
48329;SDS011;34138;51.262;6.818;2024-03-17T21:33:34;5.72;;;3.55;;
48329;SDS011;34138;51.262;6.818;2024-03-17T21:35:59;6.50;;;3.75;;
48329;SDS011;34138;51.262;6.818;2024-03-17T21:38:25;11.43;;;4.18;;
48329;SDS011;34138;51.262;6.818;2024-03-17T21:40:51;10.15;;;4.10;;
48329;SDS011;34138;51.262;6.818;2024-03-17T21:43:16;6.70;;;3.85;;
48329;SDS011;34138;51.262;6.818;2024-03-17T21:45:41;9.38;;;4.47;;
48329;SDS011;34138;51.262;6.818;2024-03-17T21:48:07;7.22;;;4.22;;
48329;SDS011;34138;51.262;6.818;2024-03-17T21:50:32;9.35;;;4.53;;
48329;SDS011;34138;51.262;6.818;2024-03-17T21:52:58;7.20;;;4.47;;
48329;SDS011;34138;51.262;6.818;2024-03-17T21:55:23;8.55;;;4.88;;
48329;SDS011;34138;51.262;6.818;2024-03-17T21:57:49;8.68;;;4.78;;
48329;SDS011;34138;51.262;6.818;2024-03-17T22:00:14;8.95;;;4.40;;
48329;SDS011;34138;51.262;6.818;2024-03-17T22:02:41;9.35;;;4.75;;
48329;SDS011;34138;51.262;6.818;2024-03-17T22:05:06;7.40;;;4.30;;
48329;SDS011;34138;51.262;6.818;2024-03-17T22:07:34;10.30;;;4.53;;
48329;SDS011;34138;51.262;6.818;2024-03-17T22:10:00;10.00;;;4.93;;
48329;SDS011;34138;51.262;6.818;2024-03-17T22:12:25;8.65;;;4.40;;
48329;SDS011;34138;51.262;6.818;2024-03-17T22:14:50;9.07;;;4.63;;
48329;SDS011;34138;51.262;6.818;2024-03-17T22:17:15;8.35;;;4.80;;
48329;SDS011;34138;51.262;6.818;2024-03-17T22:19:40;9.35;;;4.60;;
48329;SDS011;34138;51.262;6.818;2024-03-17T22:22:06;8.32;;;4.55;;
48329;SDS011;34138;51.262;6.818;2024-03-17T22:24:34;6.78;;;4.70;;
48329;SDS011;34138;51.262;6.818;2024-03-17T22:29:28;7.80;;;4.30;;
48329;SDS011;34138;51.262;6.818;2024-03-17T22:31:53;8.50;;;4.63;;
48329;SDS011;34138;51.262;6.818;2024-03-17T22:34:19;6.68;;;4.22;;
48329;SDS011;34138;51.262;6.818;2024-03-17T22:36:44;8.50;;;4.43;;
48329;SDS011;34138;51.262;6.818;2024-03-17T22:39:09;8.40;;;4.50;;
48329;SDS011;34138;51.262;6.818;2024-03-17T22:41:38;6.60;;;4.47;;
48329;SDS011;34138;51.262;6.818;2024-03-17T22:44:03;10.55;;;5.15;;
48329;SDS011;34138;51.262;6.818;2024-03-17T22:46:28;8.90;;;5.10;;
48329;SDS011;34138;51.262;6.818;2024-03-17T22:48:54;8.18;;;5.15;;
48329;SDS011;34138;51.262;6.818;2024-03-17T22:51:19;9.95;;;4.63;;
48329;SDS011;34138;51.262;6.818;2024-03-17T22:53:44;9.30;;;5.50;;
48329;SDS011;34138;51.262;6.818;2024-03-17T22:56:10;11.68;;;6.20;;
48329;SDS011;34138;51.262;6.818;2024-03-17T22:58:35;10.02;;;5.22;;
48329;SDS011;34138;51.262;6.818;2024-03-17T23:01:14;9.02;;;5.43;;
48329;SDS011;34138;51.262;6.818;2024-03-17T23:03:40;10.95;;;5.32;;
48329;SDS011;34138;51.262;6.818;2024-03-17T23:06:05;8.02;;;5.50;;
48329;SDS011;34138;51.262;6.818;2024-03-17T23:08:31;8.85;;;5.40;;
48329;SDS011;34138;51.262;6.818;2024-03-17T23:11:00;8.93;;;6.03;;
48329;SDS011;34138;51.262;6.818;2024-03-17T23:13:26;12.38;;;6.10;;
48329;SDS011;34138;51.262;6.818;2024-03-17T23:15:51;10.88;;;6.30;;
48329;SDS011;34138;51.262;6.818;2024-03-17T23:18:21;13.13;;;6.35;;
48329;SDS011;34138;51.262;6.818;2024-03-17T23:20:46;10.80;;;6.80;;
48329;SDS011;34138;51.262;6.818;2024-03-17T23:23:12;11.68;;;6.93;;
48329;SDS011;34138;51.262;6.818;2024-03-17T23:25:37;11.50;;;7.32;;
48329;SDS011;34138;51.262;6.818;2024-03-17T23:28:03;12.65;;;6.60;;
48329;SDS011;34138;51.262;6.818;2024-03-17T23:30:29;10.48;;;7.38;;
48329;SDS011;34138;51.262;6.818;2024-03-17T23:32:54;10.68;;;7.57;;
48329;SDS011;34138;51.262;6.818;2024-03-17T23:35:19;12.60;;;7.28;;
48329;SDS011;34138;51.262;6.818;2024-03-17T23:37:44;13.30;;;7.38;;
48329;SDS011;34138;51.262;6.818;2024-03-17T23:40:10;10.88;;;7.20;;
48329;SDS011;34138;51.262;6.818;2024-03-17T23:42:35;12.48;;;7.55;;
48329;SDS011;34138;51.262;6.818;2024-03-17T23:45:02;10.95;;;6.97;;
48329;SDS011;34138;51.262;6.818;2024-03-17T23:47:27;11.73;;;7.28;;
48329;SDS011;34138;51.262;6.818;2024-03-17T23:49:53;11.52;;;7.68;;
48329;SDS011;34138;51.262;6.818;2024-03-17T23:52:18;12.63;;;7.22;;
48329;SDS011;34138;51.262;6.818;2024-03-17T23:54:43;13.45;;;7.88;;
48329;SDS011;34138;51.262;6.818;2024-03-17T23:57:10;11.02;;;7.65;;
48329;SDS011;34138;51.262;6.818;2024-03-17T23:59:35;12.02;;;8.65;;
